createdAt,value
2018-03-16T00:02:50.451Z,3.7
2018-03-16T00:05:50.361Z,3.5
2018-03-16T00:08:50.374Z,3.4
2018-03-16T00:11:50.379Z,3.5
2018-03-16T00:14:50.362Z,3.6
2018-03-16T00:17:50.342Z,3.7
2018-03-16T00:20:50.349Z,3.5
2018-03-16T00:23:50.424Z,3.4
2018-03-16T00:26:50.354Z,3.3
2018-03-16T00:29:50.337Z,3.2
2018-03-16T00:32:50.313Z,3.4
2018-03-16T00:35:50.333Z,3.3
2018-03-16T00:38:50.375Z,3.4
2018-03-16T00:41:50.328Z,3.5
2018-03-16T00:44:50.345Z,3.4
2018-03-16T00:47:50.330Z,3.3
2018-03-16T00:50:50.337Z,3.3
2018-03-16T00:53:50.327Z,3.3
2018-03-16T00:56:50.308Z,3.3
2018-03-16T00:59:50.324Z,3.4
2018-03-16T01:02:50.332Z,3.5
2018-03-16T01:05:50.354Z,3.3
2018-03-16T01:08:50.460Z,3.3
2018-03-16T01:11:50.310Z,3.3
2018-03-16T01:14:50.312Z,3.3
2018-03-16T01:17:50.367Z,3.2
2018-03-16T01:20:50.388Z,3.2
2018-03-16T01:23:50.314Z,3.3
2018-03-16T01:26:50.332Z,3.2
2018-03-16T01:29:50.331Z,3.3
2018-03-16T01:32:50.840Z,3.4
2018-03-16T01:35:50.340Z,3.4
2018-03-16T01:38:50.303Z,3.5
2018-03-16T01:41:50.331Z,3.4
2018-03-16T01:44:50.339Z,3.3
2018-03-16T01:47:50.328Z,3.3
2018-03-16T01:50:50.328Z,3.3
2018-03-16T01:53:50.294Z,3.3
2018-03-16T01:56:50.318Z,3.3
2018-03-16T01:59:50.305Z,3.3
2018-03-16T02:02:50.448Z,3.3
2018-03-16T02:05:50.350Z,3.3
2018-03-16T02:08:50.309Z,3.4
2018-03-16T02:11:50.289Z,3.3
2018-03-16T02:14:50.329Z,3.4
2018-03-16T02:17:50.315Z,3.3
2018-03-16T02:20:50.297Z,3.2
2018-03-16T02:23:50.309Z,3.5
2018-03-16T02:26:50.317Z,3.4
2018-03-16T02:29:50.299Z,3.3
2018-03-16T02:32:50.312Z,3.3
2018-03-16T02:35:50.319Z,3.3
2018-03-16T02:38:50.316Z,3.4
2018-03-16T02:41:50.305Z,3.4
2018-03-16T02:44:50.310Z,3.3
2018-03-16T02:47:50.310Z,3.3
2018-03-16T02:50:50.154Z,3.3
2018-03-16T02:53:50.336Z,3.1
2018-03-16T02:56:50.290Z,3.2
2018-03-16T02:59:50.360Z,3.2
2018-03-16T03:02:50.303Z,3.1
2018-03-16T03:05:50.336Z,3.3
2018-03-16T03:08:50.333Z,3.1
2018-03-16T03:11:50.272Z,3.2
2018-03-16T03:14:50.288Z,3.3
2018-03-16T03:17:50.277Z,3.2
2018-03-16T03:20:50.334Z,3.2
2018-03-16T03:23:50.259Z,3.2
2018-03-16T03:26:50.468Z,3.2
2018-03-16T03:29:50.266Z,3.2
2018-03-16T03:32:50.354Z,3.1
2018-03-16T03:35:50.272Z,3.2
2018-03-16T03:38:50.262Z,3.1
2018-03-16T03:41:50.311Z,3.1
2018-03-16T03:44:50.267Z,3.1
2018-03-16T03:47:50.302Z,3.1
2018-03-16T03:50:50.281Z,3
2018-03-16T03:53:50.270Z,3
2018-03-16T03:56:50.250Z,3
2018-03-16T03:59:50.277Z,2.9
2018-03-16T04:02:50.410Z,3
2018-03-16T04:05:50.319Z,3.1
2018-03-16T04:08:50.279Z,3.1
2018-03-16T04:11:50.270Z,3
2018-03-16T04:14:50.779Z,2.9
2018-03-16T04:17:50.280Z,3
2018-03-16T04:20:50.262Z,2.9
2018-03-16T04:23:50.233Z,2.8
2018-03-16T04:26:50.268Z,2.9
2018-03-16T04:29:50.266Z,2.8
2018-03-16T04:32:50.269Z,2.9
2018-03-16T04:35:50.266Z,3
2018-03-16T04:38:50.332Z,2.9
2018-03-16T04:41:50.253Z,2.9
2018-03-16T04:44:50.260Z,2.8
2018-03-16T04:47:50.241Z,2.8
2018-03-16T04:50:50.257Z,2.9
2018-03-16T04:53:50.246Z,2.8
2018-03-16T04:56:50.255Z,2.7
2018-03-16T04:59:50.301Z,2.7
2018-03-16T05:02:50.299Z,2.7
2018-03-16T05:05:50.241Z,2.7
2018-03-16T05:08:50.319Z,2.7
2018-03-16T05:11:50.301Z,2.6
2018-03-16T05:14:50.323Z,2.7
2018-03-16T05:17:50.280Z,2.6
2018-03-16T05:20:50.286Z,2.6
2018-03-16T05:23:50.297Z,2.6
2018-03-16T05:26:50.329Z,2.6
2018-03-16T05:29:50.342Z,2.6
2018-03-16T05:32:50.295Z,2.5
2018-03-16T05:35:50.274Z,2.5
2018-03-16T05:38:50.297Z,2.5
2018-03-16T05:41:50.560Z,2.5
2018-03-16T05:44:50.280Z,2.5
2018-03-16T05:47:50.281Z,2.5
2018-03-16T05:50:50.277Z,2.5
2018-03-16T05:53:50.298Z,2.5
2018-03-16T05:56:50.266Z,2.5
2018-03-16T05:59:50.277Z,2.4
2018-03-16T06:02:50.294Z,2.4
2018-03-16T06:05:50.270Z,2.4
2018-03-16T06:08:50.299Z,2.4
2018-03-16T06:11:50.276Z,2.4
2018-03-16T06:14:50.274Z,2.3
2018-03-16T06:17:50.384Z,2.4
2018-03-16T06:20:50.273Z,2.5
2018-03-16T06:23:50.294Z,2.3
2018-03-16T06:26:50.565Z,2.3
2018-03-16T06:29:50.275Z,2.4
2018-03-16T06:32:50.251Z,2.1
2018-03-16T06:35:50.280Z,2.2
2018-03-16T06:38:50.249Z,2.2
2018-03-16T06:41:50.282Z,2.2
2018-03-16T06:44:52.337Z,2.1
2018-03-16T06:47:50.244Z,2.4
2018-03-16T06:50:50.271Z,2.4
2018-03-16T06:53:50.259Z,2.3
2018-03-16T06:56:50.268Z,2.2
2018-03-16T06:59:50.439Z,2
2018-03-16T07:02:50.251Z,2.1
2018-03-16T07:05:50.300Z,2.1
2018-03-16T07:08:50.256Z,2.1
2018-03-16T07:11:50.270Z,2
2018-03-16T07:14:50.238Z,2.1
2018-03-16T07:17:50.265Z,2.1
2018-03-16T07:20:50.282Z,2.1
2018-03-16T07:23:50.244Z,2.1
2018-03-16T07:26:50.260Z,2.1
2018-03-16T07:29:50.255Z,2.1
2018-03-16T07:32:50.876Z,2
2018-03-16T07:35:50.233Z,2
2018-03-16T07:38:50.237Z,2
2018-03-16T07:41:50.259Z,2.1
2018-03-16T07:44:50.282Z,2.1
2018-03-16T07:47:50.238Z,2
2018-03-16T07:50:50.281Z,2
2018-03-16T07:53:50.236Z,2
2018-03-16T07:56:50.230Z,1.9
2018-03-16T07:59:50.249Z,1.9
2018-03-16T08:02:50.235Z,1.9
2018-03-16T08:05:50.393Z,1.9
2018-03-16T08:08:50.937Z,1.9
2018-03-16T08:11:50.542Z,2
2018-03-16T08:14:50.232Z,2.1
2018-03-16T08:17:50.259Z,1.9
2018-03-16T08:20:50.218Z,1.9
2018-03-16T08:23:50.240Z,1.8
2018-03-16T08:26:50.218Z,1.8
2018-03-16T08:29:50.245Z,1.8
2018-03-16T08:32:50.251Z,1.8
2018-03-16T08:35:50.235Z,1.8
2018-03-16T08:38:50.222Z,2.2
2018-03-16T08:41:50.228Z,2
2018-03-16T08:44:50.220Z,1.9
2018-03-16T08:47:50.232Z,1.8
2018-03-16T08:50:50.215Z,1.9
2018-03-16T08:53:50.257Z,2
2018-03-16T08:56:50.216Z,1.9
2018-03-16T08:59:50.217Z,1.9
2018-03-16T09:02:50.573Z,1.8
2018-03-16T09:05:50.208Z,1.8
2018-03-16T09:08:50.246Z,1.7
2018-03-16T09:11:50.207Z,1.7
2018-03-16T09:14:50.224Z,1.7
2018-03-16T09:17:50.283Z,1.7
2018-03-16T09:20:50.214Z,1.7
2018-03-16T09:23:50.245Z,1.8
2018-03-16T09:26:50.216Z,1.7
2018-03-16T09:29:50.209Z,1.7
2018-03-16T09:32:50.197Z,1.8
2018-03-16T09:35:50.230Z,1.7
2018-03-16T09:38:50.260Z,1.8
2018-03-16T09:41:50.236Z,1.7
2018-03-16T09:44:50.265Z,1.7
2018-03-16T09:47:50.199Z,1.7
2018-03-16T09:50:50.222Z,1.7
2018-03-16T09:53:50.180Z,1.8
2018-03-16T09:56:50.254Z,1.7
2018-03-16T09:59:50.210Z,1.6
2018-03-16T10:02:50.208Z,1.7
2018-03-16T10:05:50.286Z,1.8
2018-03-16T10:08:50.205Z,1.7
2018-03-16T10:11:50.325Z,1.7
2018-03-16T10:14:50.180Z,1.7
2018-03-16T10:17:50.593Z,1.8
2018-03-16T10:20:50.178Z,1.7
2018-03-16T10:23:50.197Z,1.8
2018-03-16T10:26:50.196Z,1.8
2018-03-16T10:29:50.338Z,1.7
2018-03-16T10:32:50.039Z,1.7
2018-03-16T10:35:50.202Z,1.7
2018-03-16T10:38:50.200Z,1.7
2018-03-16T10:41:50.220Z,1.7
2018-03-16T10:44:50.204Z,1.7
2018-03-16T10:47:50.168Z,1.8
2018-03-16T10:50:50.220Z,1.8
2018-03-16T10:53:50.199Z,1.8
2018-03-16T10:56:50.206Z,1.7
2018-03-16T10:59:50.168Z,1.8
2018-03-16T11:02:50.179Z,2.1
2018-03-16T11:05:50.172Z,2
2018-03-16T11:08:50.176Z,1.9
2018-03-16T11:11:50.199Z,1.9
2018-03-16T11:14:50.164Z,1.8
2018-03-16T11:17:50.178Z,1.7
2018-03-16T11:20:50.170Z,1.8
2018-03-16T11:23:50.216Z,1.8
2018-03-16T11:26:50.236Z,1.8
2018-03-16T11:29:50.190Z,1.8
2018-03-16T11:32:50.170Z,1.8
2018-03-16T11:35:50.174Z,1.7
2018-03-16T11:38:50.163Z,1.8
2018-03-16T11:41:50.195Z,1.7
2018-03-16T11:44:50.169Z,1.7
2018-03-16T11:47:50.149Z,1.7
2018-03-16T11:50:50.165Z,1.8
2018-03-16T11:53:50.161Z,1.7
2018-03-16T11:56:50.160Z,1.7
2018-03-16T11:59:50.169Z,1.7
2018-03-16T12:02:50.135Z,1.7
2018-03-16T12:05:50.175Z,2
2018-03-16T12:08:50.178Z,2
2018-03-16T12:11:50.160Z,1.8
2018-03-16T12:14:50.164Z,1.9
2018-03-16T12:17:50.149Z,1.7
2018-03-16T12:20:50.163Z,1.8
2018-03-16T12:23:50.166Z,1.8
2018-03-16T12:26:50.174Z,1.7
2018-03-16T12:29:50.169Z,1.7
2018-03-16T12:32:50.144Z,1.7
2018-03-16T12:35:50.168Z,1.8
2018-03-16T12:38:50.165Z,1.7
2018-03-16T12:41:50.206Z,1.7
2018-03-16T12:44:50.173Z,1.6
2018-03-16T12:47:50.482Z,1.7
2018-03-16T12:50:50.137Z,1.6
2018-03-16T12:53:50.148Z,1.6
2018-03-16T12:56:50.188Z,1.6
2018-03-16T12:59:50.147Z,1.7
2018-03-16T13:02:50.116Z,1.7
2018-03-16T13:05:50.165Z,1.7
2018-03-16T13:08:50.160Z,1.6
2018-03-16T13:11:50.142Z,1.6
2018-03-16T13:14:50.138Z,1.5
2018-03-16T13:17:50.158Z,1.5
2018-03-16T13:20:50.159Z,1.5
2018-03-16T13:23:50.192Z,1.5
2018-03-16T13:26:50.184Z,1.5
2018-03-16T13:29:50.130Z,1.7
2018-03-16T13:32:50.138Z,1.8
2018-03-16T13:35:50.145Z,1.6
2018-03-16T13:38:50.402Z,1.6
2018-03-16T13:41:50.115Z,1.6
2018-03-16T13:44:50.130Z,1.5
2018-03-16T13:47:50.117Z,1.6
2018-03-16T13:50:50.154Z,1.8
2018-03-16T13:53:50.125Z,2.9
2018-03-16T13:56:50.164Z,2.8
2018-03-16T13:59:50.130Z,3.1
2018-03-16T14:02:50.138Z,3.2
2018-03-16T14:05:50.131Z,3.4
2018-03-16T14:08:50.252Z,3.1
2018-03-16T14:11:50.123Z,3.7
2018-03-16T14:14:50.112Z,5
2018-03-16T14:17:50.140Z,3.6
2018-03-16T14:20:50.135Z,3.3
2018-03-16T14:23:50.119Z,2.5
2018-03-16T14:26:50.140Z,3.4
2018-03-16T14:29:50.129Z,2.9
2018-03-16T14:32:50.148Z,2.6
2018-03-16T14:35:50.155Z,3
2018-03-16T14:38:50.113Z,3
2018-03-16T14:41:50.120Z,2.5
2018-03-16T14:44:50.119Z,2.2
2018-03-16T14:47:50.089Z,2.1
2018-03-16T14:50:50.131Z,2.2
2018-03-16T14:53:50.163Z,2.2
2018-03-16T14:56:50.127Z,2.1
2018-03-16T14:59:50.113Z,2
2018-03-16T15:02:50.108Z,1.9
2018-03-16T15:05:50.123Z,1.8
2018-03-16T15:08:50.095Z,2
2018-03-16T15:11:50.102Z,1.9
2018-03-16T15:14:50.117Z,2.1
2018-03-16T15:17:50.153Z,2
2018-03-16T15:20:50.104Z,2.1
2018-03-16T15:23:50.125Z,2
2018-03-16T15:26:50.105Z,2.5
2018-03-16T15:29:50.103Z,2.2
2018-03-16T15:32:50.100Z,2.2
2018-03-16T15:35:50.212Z,2.2
2018-03-16T15:38:50.117Z,2.2
2018-03-16T15:41:50.781Z,1.8
2018-03-16T15:44:50.089Z,1.9
2018-03-16T15:47:50.088Z,2.2
2018-03-16T15:50:50.620Z,2.6
2018-03-16T15:53:50.131Z,2.4
2018-03-16T15:56:50.626Z,2
2018-03-16T15:59:50.083Z,1.8
2018-03-16T16:02:50.093Z,1.8
2018-03-16T16:05:50.341Z,2.1
2018-03-16T16:08:50.217Z,2
2018-03-16T16:11:50.073Z,1.9
2018-03-16T16:14:50.098Z,1.8
2018-03-16T16:17:50.086Z,1.7
2018-03-16T16:20:50.087Z,1.7
2018-03-16T16:23:50.082Z,1.9
2018-03-16T16:26:50.107Z,2
2018-03-16T16:29:50.090Z,1.8
2018-03-16T16:32:50.098Z,2
2018-03-16T16:35:50.161Z,1.8
2018-03-16T16:38:50.106Z,4.4
2018-03-16T16:41:50.089Z,4.8
2018-03-16T16:44:50.071Z,4.2
2018-03-16T16:47:50.448Z,14.8
2018-03-16T16:50:50.076Z,12.6
2018-03-16T16:53:50.057Z,8.8
2018-03-16T16:56:50.069Z,6.9
2018-03-16T16:59:50.710Z,5.2
2018-03-16T17:02:50.066Z,4.1
2018-03-16T17:05:50.085Z,3.3
2018-03-16T17:08:50.119Z,2.8
2018-03-16T17:11:50.064Z,3.2
2018-03-16T17:14:50.040Z,3.6
2018-03-16T17:17:50.064Z,2.8
2018-03-16T17:20:50.053Z,2.7
2018-03-16T17:23:50.087Z,3
2018-03-16T17:26:50.066Z,3.4
2018-03-16T17:29:50.084Z,3.5
2018-03-16T17:32:50.055Z,3.1
2018-03-16T17:35:50.064Z,2.7
2018-03-16T17:38:50.071Z,2.6
2018-03-16T17:41:50.077Z,2.4
2018-03-16T17:44:50.048Z,3.1
2018-03-16T17:47:50.116Z,2.9
2018-03-16T17:50:50.071Z,3.7
2018-03-16T17:53:50.052Z,2.9
2018-03-16T17:56:50.102Z,3
2018-03-16T17:59:50.074Z,2.7
2018-03-16T18:02:50.089Z,2.6
2018-03-16T18:05:50.075Z,3
2018-03-16T18:08:50.086Z,4.4
2018-03-16T18:11:50.064Z,4.7
2018-03-16T18:14:50.053Z,3.2
2018-03-16T18:17:50.039Z,3.6
2018-03-16T18:20:50.047Z,3.4
2018-03-16T18:23:50.030Z,3
2018-03-16T18:26:50.035Z,2.6
2018-03-16T18:29:50.053Z,2.5
2018-03-16T18:32:50.038Z,2.7
2018-03-16T18:35:50.021Z,2.5
2018-03-16T18:38:50.073Z,2.8
2018-03-16T18:41:50.036Z,3.7
2018-03-16T18:44:50.053Z,4
2018-03-16T18:47:50.038Z,4
2018-03-16T18:50:50.042Z,5.1
2018-03-16T18:53:50.046Z,4.7
2018-03-16T18:56:50.046Z,4
2018-03-16T18:59:50.063Z,3.3
2018-03-16T19:02:50.026Z,3.5
2018-03-16T19:05:50.064Z,3.7
2018-03-16T19:08:50.056Z,3.1
2018-03-16T19:11:50.059Z,3.7
2018-03-16T19:14:50.020Z,3.2
2018-03-16T19:17:50.026Z,3
2018-03-16T19:20:50.095Z,2.7
2018-03-16T19:23:50.019Z,4
2018-03-16T19:26:50.044Z,3.6
2018-03-16T19:29:50.020Z,4.7
2018-03-16T19:32:50.038Z,3.6
2018-03-16T19:35:50.071Z,4.4
2018-03-16T19:38:50.051Z,4.4
2018-03-16T19:41:50.021Z,3.6
2018-03-16T19:44:50.076Z,3.1
2018-03-16T19:47:50.028Z,3.3
2018-03-16T19:50:50.012Z,2.7
2018-03-16T19:53:50.180Z,3.1
2018-03-16T19:56:50.035Z,3.6
2018-03-16T19:59:50.034Z,3.3
2018-03-16T20:02:50.115Z,2.9
2018-03-16T20:05:50.017Z,3.7
2018-03-16T20:08:50.010Z,4.1
2018-03-16T20:11:50.109Z,4.2
2018-03-16T20:14:50.025Z,4.2
2018-03-16T20:17:49.998Z,3.7
2018-03-16T20:20:50.015Z,3.9
2018-03-16T20:23:50.018Z,5.5
2018-03-16T20:26:50.020Z,4.7
2018-03-16T20:29:50.017Z,6
2018-03-16T20:32:50.369Z,10.5
2018-03-16T20:35:50.024Z,9.5
2018-03-16T20:38:49.849Z,7.1
2018-03-16T20:41:50.026Z,6.7
2018-03-16T20:44:50.005Z,5.7
2018-03-16T20:47:50.026Z,5.1
2018-03-16T20:50:50.024Z,5.1
2018-03-16T20:53:50.089Z,4.1
2018-03-16T20:56:49.983Z,5.2
2018-03-16T20:59:49.990Z,4.2
2018-03-16T21:02:50.001Z,3.8
2018-03-16T21:05:49.986Z,4
2018-03-16T21:08:50.022Z,4.1
2018-03-16T21:11:49.997Z,4.3
2018-03-16T21:14:50.004Z,4.1
2018-03-16T21:17:49.979Z,4.4
2018-03-16T21:20:50.002Z,4.2
2018-03-16T21:23:49.987Z,3.9
2018-03-16T21:26:50.029Z,4.1
2018-03-16T21:29:49.970Z,4.1
2018-03-16T21:32:50.006Z,3.8
2018-03-16T21:35:49.972Z,3.9
2018-03-16T21:38:49.983Z,4
2018-03-16T21:41:49.972Z,3.8
2018-03-16T21:44:49.987Z,3.8
2018-03-16T21:47:49.976Z,3.7
2018-03-16T21:50:49.999Z,3.4
2018-03-16T21:53:49.988Z,3.6
2018-03-16T21:56:49.972Z,3.7
2018-03-16T21:59:50.002Z,3.7
2018-03-16T22:02:50.004Z,3.3
2018-03-16T22:05:49.976Z,3.8
2018-03-16T22:08:49.957Z,3.3
2018-03-16T22:11:50.107Z,4
2018-03-16T22:14:49.962Z,4.1
2018-03-16T22:17:49.992Z,3.6
2018-03-16T22:20:49.964Z,3.9
2018-03-16T22:23:49.963Z,3.5
2018-03-16T22:26:50.018Z,3.3
2018-03-16T22:29:49.977Z,3.1
2018-03-16T22:32:50.014Z,3.2
2018-03-16T22:35:49.963Z,3.3
2018-03-16T22:38:49.959Z,3.7
2018-03-16T22:41:49.946Z,3.7
2018-03-16T22:44:49.977Z,3.8
2018-03-16T22:47:49.987Z,3.7
2018-03-16T22:50:50.002Z,4
2018-03-16T22:53:49.953Z,3.9
2018-03-16T22:56:50.447Z,3.9
2018-03-16T22:59:49.949Z,3.9
2018-03-16T23:02:49.953Z,3.7
2018-03-16T23:05:49.954Z,3.4
2018-03-16T23:08:49.977Z,3.8
2018-03-16T23:11:49.952Z,4
2018-03-16T23:14:49.960Z,4.4
2018-03-16T23:17:49.940Z,3.8
2018-03-16T23:20:49.975Z,4.1
2018-03-16T23:23:49.972Z,3.7
2018-03-16T23:26:49.995Z,3.6
2018-03-16T23:29:49.936Z,3.8
2018-03-16T23:32:49.946Z,3.6
2018-03-16T23:35:49.952Z,3.9
2018-03-16T23:38:49.940Z,3.9
2018-03-16T23:41:49.975Z,3.7
2018-03-16T23:44:49.981Z,3.6
2018-03-16T23:47:49.967Z,3.4
2018-03-16T23:50:49.940Z,3.4
2018-03-16T23:53:49.941Z,3.4
2018-03-16T23:56:49.960Z,3.3
2018-03-16T23:59:49.940Z,3.6
